Time;durP1;ratioP1;P1;durP2;ratioP2;P2;SDS_P1;SDS_P2;PMS_P1;PMS_P2;Temp;Humidity;BMP_temperature;BMP_pressure;BME280_temperature;BME280_humidity;BME280_pressure;Samples;Min_cycle;Max_cycle;Signal;HPM_P1;HPM_P2
2024/01/04 00:01:20;;;;;;;6.23;1.37;;;;;;;-145.18;100.00;47080.38;5072660;28;20032;-76
2024/01/04 00:03:45;;;;;;;6.03;1.10;;;;;;;-145.18;100.00;47082.34;5056836;28;20040;-75
2024/01/04 00:06:10;;;;;;;6.33;1.10;;;;;;;-145.18;100.00;47084.28;5092853;28;20515;-75
2024/01/04 00:08:36;;;;;;;8.97;1.57;;;;;;;-145.18;100.00;47080.38;5074528;28;20043;-75
2024/01/04 00:11:03;;;;;;;7.07;1.30;;;;;;;-145.18;100.00;47080.38;5072390;28;20480;-76
2024/01/04 00:13:29;;;;;;;6.13;1.37;;;;;;;-145.18;100.00;47090.16;5091119;28;20055;-75
2024/01/04 00:15:54;;;;;;;6.97;1.07;;;;;;;-145.18;100.00;47082.34;5092752;28;20342;-75
2024/01/04 00:18:19;;;;;;;6.00;0.90;;;;;;;-145.18;100.00;47080.38;5090853;28;20040;-76
2024/01/04 00:20:45;;;;;;;5.73;0.97;;;;;;;-145.18;100.00;47082.34;5072996;28;20048;-76
2024/01/04 00:23:10;;;;;;;4.77;0.70;;;;;;;-145.18;100.00;47072.56;5072767;28;20032;-75
2024/01/04 00:25:36;;;;;;;8.10;0.90;;;;;;;-145.18;100.00;47072.56;5091493;28;20442;-76
2024/01/04 00:28:01;;;;;;;6.47;1.50;;;;;;;-145.18;100.00;47076.47;5092291;28;20035;-75
2024/01/04 00:30:27;;;;;;;4.93;0.87;;;;;;;-145.18;100.00;47076.47;5092542;28;20034;-76
2024/01/04 00:32:52;;;;;;;6.00;0.67;;;;;;;-145.18;100.00;47074.53;5089924;28;20564;-76
2024/01/04 00:35:18;;;;;;;11.57;1.13;;;;;;;-145.18;100.00;47076.47;5089874;28;20028;-76
2024/01/04 00:37:43;;;;;;;4.67;0.90;;;;;;;-145.18;100.00;47068.66;5092028;28;20085;-72
2024/01/04 00:40:09;;;;;;;8.10;1.10;;;;;;;-145.18;100.00;47070.63;5091398;28;20377;-72
2024/01/04 00:42:35;;;;;;;5.30;0.80;;;;;;;-145.18;100.00;47070.63;5073099;28;20035;-72
2024/01/04 00:45:01;;;;;;;7.13;1.00;;;;;;;-145.18;100.00;47066.72;5092523;28;20032;-72
2024/01/04 00:47:26;;;;;;;9.93;1.37;;;;;;;-145.18;100.00;47068.66;5091918;28;20700;-72
2024/01/04 00:49:52;;;;;;;7.47;1.33;;;;;;;-145.18;100.00;47064.75;5070986;28;20032;-72
2024/01/04 00:52:17;;;;;;;6.37;1.13;;;;;;;-145.18;100.00;47072.56;5073913;28;20065;-72
2024/01/04 00:54:42;;;;;;;8.33;0.93;;;;;;;-145.18;100.00;47066.72;5089687;28;20040;-72
2024/01/04 00:57:08;;;;;;;6.03;1.53;;;;;;;-145.18;100.00;47066.72;5073901;28;20448;-72
2024/01/04 00:59:34;;;;;;;8.17;1.67;;;;;;;-145.18;100.00;47066.72;5073992;28;20024;-71
2024/01/04 01:01:59;;;;;;;11.17;1.70;;;;;;;-145.18;100.00;47066.72;5073750;28;20112;-72
2024/01/04 01:04:25;;;;;;;11.77;2.07;;;;;;;-145.18;100.00;47066.72;5072132;28;20064;-72
2024/01/04 01:06:50;;;;;;;13.17;1.80;;;;;;;-145.18;100.00;47064.75;5091912;28;20048;-72
2024/01/04 01:09:15;;;;;;;11.87;1.23;;;;;;;-145.18;100.00;47066.72;5073153;28;20039;-72
2024/01/04 01:11:41;;;;;;;13.50;1.50;;;;;;;-145.18;100.00;47062.81;5072731;28;20073;-72
2024/01/04 01:14:07;;;;;;;10.40;1.83;;;;;;;-145.18;100.00;47062.81;5067542;28;20059;-72
2024/01/04 01:16:33;;;;;;;8.33;1.30;;;;;;;-145.18;100.00;47062.81;5067473;28;20051;-72
2024/01/04 01:18:58;;;;;;;4.60;1.20;;;;;;;-145.18;100.00;47060.84;5068261;28;20284;-72
2024/01/04 01:21:24;;;;;;;11.53;1.53;;;;;;;-145.18;100.00;47056.94;5067524;28;20094;-72
2024/01/04 01:23:49;;;;;;;7.90;1.23;;;;;;;-145.18;100.00;47060.84;5069025;28;20113;-72
2024/01/04 01:26:14;;;;;;;10.20;1.53;;;;;;;-145.18;100.00;47062.81;5067271;28;20032;-72
2024/01/04 01:28:40;;;;;;;12.37;1.70;;;;;;;-145.18;100.00;47055.00;5069387;28;20541;-72
2024/01/04 01:31:05;;;;;;;20.20;2.40;;;;;;;-145.18;100.00;47055.00;5069645;28;20036;-72
2024/01/04 01:33:30;;;;;;;8.50;1.80;;;;;;;-145.18;100.00;47056.94;5066843;28;20037;-72
2024/01/04 01:35:56;;;;;;;6.57;1.77;;;;;;;-145.18;100.00;47056.94;5071716;28;20032;-72
2024/01/04 01:38:22;;;;;;;10.87;1.90;;;;;;;-145.18;100.00;47056.94;5069654;28;20029;-72
2024/01/04 01:40:47;;;;;;;9.40;2.57;;;;;;;-145.18;100.00;47056.94;5068325;28;20121;-72
2024/01/04 01:43:12;;;;;;;8.63;2.07;;;;;;;-145.18;100.00;47056.94;5069275;28;20331;-72
2024/01/04 01:45:38;;;;;;;8.63;2.20;;;;;;;-145.18;100.00;47056.94;5064902;28;20040;-72
2024/01/04 01:48:05;;;;;;;11.27;2.23;;;;;;;-145.18;100.00;47055.00;5070271;28;20119;-72
2024/01/04 01:50:31;;;;;;;10.07;1.97;;;;;;;-145.18;100.00;47051.09;5069059;28;20036;-72
2024/01/04 01:52:57;;;;;;;13.97;2.70;;;;;;;-145.18;100.00;47051.09;5069153;28;20281;-72
2024/01/04 01:55:24;;;;;;;7.30;2.00;;;;;;;-145.18;100.00;47051.09;5068653;28;20296;-72
2024/01/04 01:57:51;;;;;;;9.90;2.40;;;;;;;-145.18;100.00;47045.22;5070451;28;20277;-72
2024/01/04 02:00:18;;;;;;;7.87;2.30;;;;;;;-145.18;100.00;47041.31;5068031;28;20283;-74
2024/01/04 02:02:45;;;;;;;11.87;3.00;;;;;;;-145.18;100.00;47043.28;5068645;28;20269;-72
2024/01/04 02:05:11;;;;;;;10.97;2.90;;;;;;;-145.18;100.00;47045.22;5066345;28;20279;-71
2024/01/04 02:07:36;;;;;;;15.83;4.23;;;;;;;-145.18;100.00;47041.31;5051509;28;20641;-72
2024/01/04 02:10:02;;;;;;;13.53;3.80;;;;;;;-145.18;100.00;47039.34;5068339;28;20470;-71
2024/01/04 02:12:27;;;;;;;11.73;3.37;;;;;;;-145.18;100.00;47039.34;5075152;28;20507;-72
2024/01/04 02:14:54;;;;;;;13.63;3.07;;;;;;;-145.18;100.00;47043.28;5069701;28;20032;-71
2024/01/04 02:17:21;;;;;;;11.47;4.03;;;;;;;-145.18;100.00;47035.44;5088491;28;20043;-72
2024/01/04 02:19:47;;;;;;;14.67;4.17;;;;;;;-145.18;100.00;47037.41;5090810;28;20272;-72
2024/01/04 02:22:14;;;;;;;11.93;4.00;;;;;;;-145.18;100.00;47039.34;5089382;28;20265;-72
2024/01/04 02:24:39;;;;;;;12.60;4.00;;;;;;;-145.18;100.00;47035.44;5070363;28;20300;-72
2024/01/04 02:27:04;;;;;;;15.63;4.10;;;;;;;-145.18;100.00;47035.44;5090016;28;20310;-72
2024/01/04 02:29:30;;;;;;;13.40;4.27;;;;;;;-145.18;100.00;47037.41;5090592;28;20032;-72
2024/01/04 02:31:56;;;;;;;15.07;5.17;;;;;;;-145.18;100.00;47037.41;5070429;28;20040;-72
2024/01/04 02:34:21;;;;;;;8.30;3.47;;;;;;;-145.18;100.00;47037.41;5090014;28;20432;-72
2024/01/04 02:36:47;;;;;;;15.57;3.90;;;;;;;-145.18;100.00;47037.41;5088608;28;20393;-72
2024/01/04 02:39:12;;;;;;;11.67;3.57;;;;;;;-145.18;100.00;47035.44;5090500;28;20103;-72
2024/01/04 02:41:41;;;;;;;12.43;3.50;;;;;;;-145.18;100.00;47035.44;5071593;28;20036;-72
2024/01/04 02:44:06;;;;;;;13.23;3.53;;;;;;;-145.18;100.00;47033.50;5090721;28;20036;-72
2024/01/04 02:46:32;;;;;;;7.23;2.80;;;;;;;-145.18;100.00;47031.53;5105878;28;20295;-72
2024/01/04 02:48:57;;;;;;;9.03;2.67;;;;;;;-145.18;100.00;47035.44;5089956;28;20381;-72
2024/01/04 02:51:23;;;;;;;10.70;2.67;;;;;;;-145.18;100.00;47033.50;5071009;28;20036;-72
2024/01/04 02:53:48;;;;;;;8.67;2.50;;;;;;;-145.18;100.00;47029.59;5088876;28;20088;-72
2024/01/04 02:56:13;;;;;;;11.67;2.43;;;;;;;-145.18;100.00;47027.63;5090561;28;20102;-72
2024/01/04 02:58:39;;;;;;;5.67;2.50;;;;;;;-145.18;100.00;47027.63;5088255;28;20039;-72
2024/01/04 03:01:04;;;;;;;9.40;2.60;;;;;;;-145.18;100.00;47027.63;5075265;28;20028;-72
2024/01/04 03:03:30;;;;;;;10.70;2.50;;;;;;;-145.18;100.00;47029.59;5091269;28;20028;-72
2024/01/04 03:05:55;;;;;;;7.70;2.50;;;;;;;-145.18;100.00;47023.72;5094484;28;20050;-72
2024/01/04 03:08:21;;;;;;;8.83;2.57;;;;;;;-145.18;100.00;47029.59;5074996;28;20127;-72
2024/01/04 03:10:46;;;;;;;8.97;2.20;;;;;;;-145.18;100.00;47029.59;5093194;28;20032;-72
2024/01/04 03:13:11;;;;;;;9.03;2.87;;;;;;;-145.18;100.00;47029.59;5093127;28;20056;-72
2024/01/04 03:15:37;;;;;;;13.03;2.93;;;;;;;-145.18;100.00;47029.59;5093816;28;20063;-72
2024/01/04 03:18:02;;;;;;;8.97;2.93;;;;;;;-145.18;100.00;47031.53;5091279;28;20036;-72
2024/01/04 03:20:28;;;;;;;5.40;2.70;;;;;;;-145.18;100.00;47031.53;5075497;28;20028;-72
2024/01/04 03:22:53;;;;;;;8.83;2.77;;;;;;;-145.18;100.00;47033.50;5093913;28;20091;-72
2024/01/04 03:25:19;;;;;;;13.43;3.20;;;;;;;-145.18;100.00;47033.50;5093311;28;20044;-72
2024/01/04 03:27:44;;;;;;;9.13;3.23;;;;;;;-145.18;100.00;47033.50;5073505;28;20047;-72
2024/01/04 03:30:10;;;;;;;7.57;3.10;;;;;;;-145.18;100.00;47033.50;5075193;28;20639;-72
2024/01/04 03:32:36;;;;;;;12.00;3.90;;;;;;;-145.18;100.00;47035.44;5091475;28;20036;-72
2024/01/04 03:35:02;;;;;;;10.27;3.80;;;;;;;-145.18;100.00;47035.44;5091140;28;20631;-72
2024/01/04 03:37:27;;;;;;;17.80;4.53;;;;;;;-145.18;100.00;47033.50;5074558;28;20491;-72
2024/01/04 03:39:53;;;;;;;13.10;4.53;;;;;;;-145.18;100.00;47033.50;5073863;28;20040;-72
2024/01/04 03:42:18;;;;;;;17.50;4.60;;;;;;;-145.18;100.00;47035.44;5093914;28;20989;-72
2024/01/04 03:44:44;;;;;;;13.63;5.00;;;;;;;-145.18;100.00;47035.44;5072844;28;20276;-72
2024/01/04 03:47:10;;;;;;;16.53;5.23;;;;;;;-145.18;100.00;47031.53;5092709;28;20173;-72
2024/01/04 03:49:35;;;;;;;13.83;5.77;;;;;;;-145.18;100.00;47035.44;5092174;28;20551;-72
2024/01/04 03:52:01;;;;;;;20.33;6.90;;;;;;;-145.18;100.00;47035.44;5074747;28;20081;-72
2024/01/04 03:54:27;;;;;;;19.37;5.77;;;;;;;-145.18;100.00;47037.41;5092379;28;20042;-72
2024/01/04 03:56:53;;;;;;;20.07;5.27;;;;;;;-145.18;100.00;47035.44;5074814;28;20281;-72
2024/01/04 03:59:19;;;;;;;18.67;4.87;;;;;;;-145.18;100.00;47037.41;5089287;28;20104;-72
2024/01/04 04:01:45;;;;;;;13.43;4.97;;;;;;;-145.18;100.00;47039.34;5087177;28;20824;-72
2024/01/04 04:04:11;;;;;;;12.93;4.10;;;;;;;-145.18;100.00;47037.41;5092390;28;20040;-72
2024/01/04 04:06:37;;;;;;;13.80;4.37;;;;;;;-145.18;100.00;47035.44;5090005;28;20059;-72
2024/01/04 04:09:02;;;;;;;9.50;4.50;;;;;;;-145.18;100.00;47039.34;5088330;28;20370;-76
2024/01/04 04:11:28;;;;;;;17.53;5.40;;;;;;;-145.18;100.00;47037.41;5072792;28;20511;-76
2024/01/04 04:13:54;;;;;;;13.67;5.07;;;;;;;-145.18;100.00;47043.28;5072760;28;20091;-76
2024/01/04 04:16:19;;;;;;;16.27;5.63;;;;;;;-145.18;100.00;47043.28;5093101;28;20035;-76
2024/01/04 04:18:45;;;;;;;18.20;5.50;;;;;;;-145.18;100.00;47041.31;5090833;28;21598;-77
2024/01/04 04:21:21;;;;;;;16.33;5.57;;;;;;;-145.18;100.00;47041.31;5057746;28;20055;-76
2024/01/04 04:23:49;;;;;;;15.88;5.45;;;;;;;-145.18;100.00;47043.28;5088605;28;20032;-77
2024/01/04 04:26:22;;;;;;;18.40;4.77;;;;;;;-145.18;100.00;47043.28;5105999;28;20032;-76
2024/01/04 04:28:50;;;;;;;21.13;5.60;;;;;;;-145.18;100.00;47043.28;5089499;28;20291;-76
2024/01/04 04:31:17;;;;;;;9.23;5.23;;;;;;;-145.18;100.00;47045.22;5091782;28;20794;-76
2024/01/04 04:33:44;;;;;;;11.70;4.83;;;;;;;-145.18;100.00;47047.19;5090938;28;20355;-76
2024/01/04 04:36:11;;;;;;;16.47;5.10;;;;;;;-145.18;100.00;47045.22;5090457;28;20273;-76
2024/01/04 04:38:36;;;;;;;8.70;3.87;;;;;;;-145.18;100.00;47043.28;5089893;28;20260;-76
2024/01/04 04:41:03;;;;;;;12.23;4.20;;;;;;;-145.18;100.00;47049.13;5057099;28;20283;-76
2024/01/04 04:43:29;;;;;;;11.07;3.67;;;;;;;-145.18;100.00;47049.13;5072469;28;20066;-76
2024/01/04 04:45:56;;;;;;;12.77;3.63;;;;;;;-145.18;100.00;47039.34;5092491;28;20554;-76
2024/01/04 04:48:22;;;;;;;12.07;3.53;;;;;;;-145.18;100.00;47041.31;5074233;28;20032;-76
2024/01/04 04:50:48;;;;;;;9.67;2.60;;;;;;;-145.18;100.00;47041.31;5074395;28;20290;-75
2024/01/04 04:53:13;;;;;;;9.10;2.40;;;;;;;-145.18;100.00;47037.41;5071543;28;20449;-76
2024/01/04 04:55:39;;;;;;;6.67;1.80;;;;;;;-145.18;100.00;47037.41;5092450;28;20375;-76
2024/01/04 04:58:04;;;;;;;7.40;2.93;;;;;;;-145.18;100.00;47035.44;5092167;28;20609;-75
2024/01/04 05:00:29;;;;;;;6.90;1.80;;;;;;;-145.18;100.00;47041.31;5092279;28;20035;-75
2024/01/04 05:02:55;;;;;;;3.73;1.13;;;;;;;-145.18;100.00;47031.53;5091244;28;20036;-75
2024/01/04 05:05:20;;;;;;;3.63;1.20;;;;;;;-145.18;100.00;47025.69;5073409;28;20048;-75
2024/01/04 05:07:45;;;;;;;6.33;0.83;;;;;;;-145.18;100.00;47019.81;5087221;28;20113;-76
2024/01/04 05:10:11;;;;;;;4.63;1.07;;;;;;;-145.18;100.00;47017.88;5090038;28;20027;-76
2024/01/04 05:12:37;;;;;;;4.10;1.23;;;;;;;-145.18;100.00;47017.88;5071114;28;20130;-75
2024/01/04 05:15:02;;;;;;;3.17;1.10;;;;;;;-145.18;100.00;47013.97;5092075;28;20502;-75
2024/01/04 05:17:28;;;;;;;1.53;1.00;;;;;;;-145.18;100.00;47017.88;5087919;28;20051;-76
2024/01/04 05:19:53;;;;;;;3.07;0.93;;;;;;;-145.18;100.00;47010.06;5073589;28;20066;-75
2024/01/04 05:22:19;;;;;;;1.87;1.10;;;;;;;-145.18;100.00;47010.06;5070745;28;20507;-76
2024/01/04 05:24:44;;;;;;;3.00;0.70;;;;;;;-145.18;100.00;47006.16;5072520;28;20043;-75
2024/01/04 05:27:10;;;;;;;4.13;0.70;;;;;;;-145.18;100.00;47008.09;5089377;28;20055;-77
2024/01/04 05:29:35;;;;;;;1.70;0.70;;;;;;;-145.18;100.00;47000.28;5083068;28;20090;-76
2024/01/04 05:32:02;;;;;;;7.20;0.83;;;;;;;-145.18;100.00;47004.19;5089592;28;20071;-76
2024/01/04 05:34:31;;;;;;;5.50;1.00;;;;;;;-145.18;100.00;47002.25;5089602;28;20403;-75
2024/01/04 05:37:00;;;;;;;4.00;0.90;;;;;;;-145.18;100.00;47006.16;5086339;28;20321;-76
2024/01/04 05:39:26;;;;;;;2.73;1.00;;;;;;;-145.18;100.00;47004.19;5086734;28;20260;-75
2024/01/04 05:41:52;;;;;;;3.73;1.00;;;;;;;-145.18;100.00;47000.28;5088183;28;20279;-76
2024/01/04 05:44:17;;;;;;;4.07;0.80;;;;;;;-145.18;100.00;47004.19;5085903;28;20043;-76
2024/01/04 05:46:43;;;;;;;8.67;2.33;;;;;;;-145.18;100.00;47004.19;5090475;28;20047;-76
2024/01/04 05:49:08;;;;;;;5.67;1.43;;;;;;;-145.18;100.00;47008.09;5086222;28;20059;-76
2024/01/04 05:51:34;;;;;;;5.30;1.57;;;;;;;-145.18;100.00;47008.09;5088187;28;20483;-76
2024/01/04 05:53:59;;;;;;;11.20;6.20;;;;;;;-145.18;100.00;47004.19;5055534;28;20028;-76
2024/01/04 05:56:25;;;;;;;7.60;4.57;;;;;;;-145.18;100.00;47008.09;5068322;28;20040;-77
2024/01/04 05:58:50;;;;;;;6.87;5.57;;;;;;;-145.18;100.00;47010.06;5071001;28;20161;-78
2024/01/04 06:01:15;;;;;;;9.37;3.97;;;;;;;-145.18;100.00;47008.09;5085608;28;20484;-78
2024/01/04 06:03:41;;;;;;;7.10;2.70;;;;;;;-145.18;100.00;47013.97;5089698;28;20111;-78
2024/01/04 06:06:07;;;;;;;11.03;1.47;;;;;;;-145.18;100.00;47015.91;5089300;28;20047;-78
2024/01/04 06:08:32;;;;;;;6.70;1.90;;;;;;;-145.18;100.00;47023.72;5087671;28;20024;-78
2024/01/04 06:10:58;;;;;;;7.20;2.20;;;;;;;-145.18;100.00;47019.81;5083328;28;20280;-78
2024/01/04 06:13:26;;;;;;;9.90;2.27;;;;;;;-145.18;100.00;47023.72;5068408;28;20522;-79
2024/01/04 06:15:52;;;;;;;10.33;2.23;;;;;;;-145.18;100.00;47027.63;5090372;28;20028;-79
2024/01/04 06:18:18;;;;;;;4.80;2.00;;;;;;;-145.18;100.00;47027.63;5088933;28;20355;-78
2024/01/04 06:20:43;;;;;;;12.07;3.33;;;;;;;-145.18;100.00;47025.69;5052735;28;20950;-78
2024/01/04 06:23:09;;;;;;;7.17;3.00;;;;;;;-145.18;100.00;47029.59;5087641;28;20384;-78
2024/01/04 06:25:34;;;;;;;10.17;2.07;;;;;;;-145.18;100.00;47031.53;5088157;28;20081;-78
2024/01/04 06:28:00;;;;;;;7.20;1.77;;;;;;;-145.18;100.00;47035.44;5087593;28;20055;-78
2024/01/04 06:30:25;;;;;;;10.03;2.57;;;;;;;-145.18;100.00;47039.34;5072460;28;20039;-78
2024/01/04 06:32:50;;;;;;;12.70;2.93;;;;;;;-145.18;100.00;47041.31;5089213;28;20480;-77
2024/01/04 06:35:16;;;;;;;7.27;1.63;;;;;;;-145.18;100.00;47037.41;5088940;28;20066;-77
2024/01/04 06:37:41;;;;;;;7.50;1.57;;;;;;;-145.18;100.00;47043.28;5087281;28;20033;-78
2024/01/04 06:40:08;;;;;;;6.50;1.10;;;;;;;-145.18;100.00;47043.28;5067270;28;20368;-77
2024/01/04 06:42:36;;;;;;;5.37;1.13;;;;;;;-145.18;100.00;47045.22;5087193;28;20028;-78
2024/01/04 06:45:05;;;;;;;9.03;1.40;;;;;;;-145.18;100.00;47045.22;5070917;28;20636;-78
2024/01/04 06:47:31;;;;;;;1.83;0.90;;;;;;;-145.18;100.00;47041.31;5082861;28;20407;-77
2024/01/04 06:49:56;;;;;;;6.57;1.40;;;;;;;-145.18;100.00;47039.34;5090314;28;20264;-77
2024/01/04 06:52:22;;;;;;;3.10;1.10;;;;;;;-145.18;100.00;47039.34;5070755;28;20028;-77
2024/01/04 06:54:47;;;;;;;3.33;0.70;;;;;;;-145.18;100.00;47031.53;5066551;28;20497;-77
2024/01/04 06:57:13;;;;;;;6.80;0.87;;;;;;;-145.18;100.00;47035.44;5088798;28;20036;-77
2024/01/04 06:59:38;;;;;;;4.43;0.80;;;;;;;-145.18;100.00;47027.63;5088412;28;20039;-77
2024/01/04 07:02:07;;;;;;;2.13;0.70;;;;;;;-145.18;100.00;47029.59;5087117;28;20434;-78
2024/01/04 07:04:33;;;;;;;2.10;0.80;;;;;;;-145.18;100.00;47021.78;5064928;28;20032;-77
2024/01/04 07:06:58;;;;;;;2.50;0.67;;;;;;;-145.18;100.00;47019.81;5103797;28;20288;-77
2024/01/04 07:09:23;;;;;;;4.23;0.60;;;;;;;-145.18;100.00;47012.00;5089496;28;20028;-78
2024/01/04 07:11:49;;;;;;;1.37;0.60;;;;;;;-145.18;100.00;47008.09;5088306;28;20391;-77
2024/01/04 07:14:14;;;;;;;3.27;0.70;;;;;;;-145.18;100.00;47010.06;5046337;28;20132;-77
2024/01/04 07:16:44;;;;;;;3.63;0.80;;;;;;;-145.18;100.00;47004.19;5047570;28;20059;-77
2024/01/04 07:19:09;;;;;;;0.90;0.60;;;;;;;-145.18;100.00;47004.19;5046479;28;20078;-77
2024/01/04 07:21:35;;;;;;;4.03;0.87;;;;;;;-145.18;100.00;47004.19;5048357;28;20283;-77
2024/01/04 07:24:00;;;;;;;3.50;0.80;;;;;;;-145.18;100.00;47002.25;5045851;28;20033;-78
2024/01/04 07:26:26;;;;;;;4.17;0.90;;;;;;;-145.18;100.00;47000.28;5049117;28;21504;-78
2024/01/04 07:28:51;;;;;;;5.27;0.80;;;;;;;-145.18;100.00;47006.16;5046732;28;20447;-78
2024/01/04 07:31:17;;;;;;;3.53;1.00;;;;;;;-145.18;100.00;47004.19;5047520;28;20472;-76
2024/01/04 07:33:42;;;;;;;3.70;0.77;;;;;;;-145.18;100.00;47008.09;5045232;28;20038;-77
2024/01/04 07:36:08;;;;;;;1.00;0.60;;;;;;;-145.18;100.00;47010.06;5044652;28;20025;-76
2024/01/04 07:38:34;;;;;;;3.83;0.93;;;;;;;-145.18;100.00;47006.16;5045215;28;20073;-72
2024/01/04 07:41:00;;;;;;;1.50;0.57;;;;;;;-145.18;100.00;47008.09;5045368;28;20024;-72
2024/01/04 07:43:25;;;;;;;3.53;0.70;;;;;;;-145.18;100.00;47010.06;5042264;28;20273;-71
2024/01/04 07:45:50;;;;;;;6.67;0.50;;;;;;;-145.18;100.00;47012.00;5041712;28;20048;-72
2024/01/04 07:48:16;;;;;;;2.20;0.53;;;;;;;-145.18;100.00;47010.06;5048933;28;20119;-72
2024/01/04 07:50:41;;;;;;;1.20;0.60;;;;;;;-145.18;100.00;47012.00;5050450;28;20500;-72
2024/01/04 07:53:07;;;;;;;4.57;0.83;;;;;;;-145.18;100.00;47019.81;5049116;28;20555;-72
2024/01/04 07:55:32;;;;;;;4.40;0.80;;;;;;;-145.18;100.00;47021.78;5046089;28;20493;-72
2024/01/04 07:57:58;;;;;;;2.80;1.10;;;;;;;-145.18;100.00;47021.78;5049824;28;20056;-73
2024/01/04 08:00:23;;;;;;;2.03;1.00;;;;;;;-145.18;100.00;47019.81;5051169;28;20041;-72
2024/01/04 08:02:49;;;;;;;2.93;1.53;;;;;;;-145.18;100.00;47021.78;5047320;28;20029;-73
2024/01/04 08:05:14;;;;;;;2.63;1.40;;;;;;;-145.18;100.00;47019.81;5047880;28;20119;-73
2024/01/04 08:07:41;;;;;;;2.83;0.90;;;;;;;-145.18;100.00;47021.78;5043427;28;20029;-72
2024/01/04 08:10:09;;;;;;;6.23;1.90;;;;;;;-145.18;100.00;47021.78;5045904;28;20106;-73
2024/01/04 08:12:34;;;;;;;3.30;1.03;;;;;;;-145.18;100.00;47025.69;5043847;28;20297;-73
2024/01/04 08:14:59;;;;;;;6.03;1.60;;;;;;;-145.18;100.00;47023.72;5047809;28;20285;-73
2024/01/04 08:17:25;;;;;;;6.77;1.27;;;;;;;-145.18;100.00;47023.72;5048928;28;20560;-73
2024/01/04 08:19:50;;;;;;;6.53;2.93;;;;;;;-145.18;100.00;47029.59;5050452;28;20040;-73
2024/01/04 08:22:16;;;;;;;4.93;1.27;;;;;;;-145.18;100.00;47027.63;5046331;28;20400;-73
2024/01/04 08:24:42;;;;;;;5.97;0.90;;;;;;;-145.18;100.00;47029.59;5032393;28;20111;-72
2024/01/04 08:27:07;;;;;;;7.60;0.70;;;;;;;-145.18;100.00;47035.44;5050123;28;20477;-72
2024/01/04 08:29:33;;;;;;;4.07;0.80;;;;;;;-145.18;100.00;47039.34;5049696;28;20029;-72
2024/01/04 08:31:58;;;;;;;6.43;1.17;;;;;;;-145.18;100.00;47035.44;5048947;28;20519;-72
2024/01/04 08:34:23;;;;;;;5.10;1.70;;;;;;;-145.18;100.00;47037.41;5048522;28;20112;-72
2024/01/04 08:36:49;;;;;;;5.20;1.37;;;;;;;-145.18;100.00;47039.34;5050353;28;20508;-72
2024/01/04 08:39:14;;;;;;;11.07;2.80;;;;;;;-145.18;100.00;47039.34;5049467;28;20042;-72
2024/01/04 08:41:39;;;;;;;5.10;1.50;;;;;;;-145.18;100.00;47043.28;5047913;28;20056;-72
2024/01/04 08:44:05;;;;;;;4.30;1.37;;;;;;;-145.18;100.00;47045.22;5048035;28;20032;-72
2024/01/04 08:46:31;;;;;;;7.57;2.30;;;;;;;-145.18;100.00;47045.22;5034794;28;20029;-72
2024/01/04 08:48:57;;;;;;;4.80;1.43;;;;;;;-145.18;100.00;47051.09;5050789;28;20087;-77
2024/01/04 08:51:22;;;;;;;7.43;1.10;;;;;;;-145.18;100.00;47051.09;5045955;28;20758;-77
2024/01/04 08:53:49;;;;;;;8.83;1.77;;;;;;;-145.18;100.00;47049.13;5051383;28;20029;-77
2024/01/04 08:56:14;;;;;;;6.50;1.30;;;;;;;-145.18;100.00;47047.19;5049097;28;20029;-77
2024/01/04 08:58:40;;;;;;;4.70;2.03;;;;;;;-145.18;100.00;47047.19;5050754;28;20331;-77
2024/01/04 09:01:05;;;;;;;3.90;0.80;;;;;;;-145.18;100.00;47047.19;5050099;28;20033;-77
2024/01/04 09:03:32;;;;;;;4.47;1.00;;;;;;;-145.18;100.00;47045.22;5081822;28;20035;-77
2024/01/04 09:05:57;;;;;;;4.63;0.70;;;;;;;-145.18;100.00;47055.00;5049577;28;20033;-76
2024/01/04 09:08:22;;;;;;;6.37;0.70;;;;;;;-145.18;100.00;47053.03;5051627;28;20566;-76
2024/01/04 09:10:49;;;;;;;12.90;1.43;;;;;;;-145.18;100.00;47058.91;5050246;28;20484;-75
2024/01/04 09:13:14;;;;;;;10.27;1.00;;;;;;;-145.18;100.00;47053.03;5071882;28;20057;-76
2024/01/04 09:15:40;;;;;;;4.50;0.83;;;;;;;-145.18;100.00;47056.94;5088332;28;20651;-76
2024/01/04 09:18:05;;;;;;;5.77;0.73;;;;;;;-145.18;100.00;47055.00;5072631;28;20042;-76
2024/01/04 09:20:30;;;;;;;5.10;1.07;;;;;;;-145.18;100.00;47053.03;5088761;28;20084;-75
2024/01/04 09:22:56;;;;;;;7.93;1.20;;;;;;;-145.18;100.00;47058.91;5090596;28;20108;-76
2024/01/04 09:25:21;;;;;;;3.03;0.70;;;;;;;-145.18;100.00;47056.94;5089647;28;20038;-77
2024/01/04 09:27:47;;;;;;;5.13;0.80;;;;;;;-145.18;100.00;47058.91;5089660;28;20101;-76
2024/01/04 09:30:13;;;;;;;6.87;1.00;;;;;;;-145.18;100.00;47056.94;5084525;28;20043;-76
2024/01/04 09:32:39;;;;;;;3.73;0.97;;;;;;;-145.18;100.00;47058.91;5089980;28;20070;-76
2024/01/04 09:35:05;;;;;;;3.33;0.50;;;;;;;-145.18;100.00;47053.03;5072751;28;20725;-75
2024/01/04 09:37:33;;;;;;;3.10;0.47;;;;;;;-145.18;100.00;47051.09;5086879;28;20040;-75
2024/01/04 09:39:58;;;;;;;2.30;0.53;;;;;;;-145.18;100.00;47047.19;5085312;28;20330;-75
2024/01/04 09:42:26;;;;;;;3.63;0.70;;;;;;;-145.18;100.00;47043.28;5083867;28;20280;-76
2024/01/04 09:44:53;;;;;;;2.17;0.50;;;;;;;-145.18;100.00;47039.34;5085886;28;20028;-77
2024/01/04 09:47:22;;;;;;;3.57;0.43;;;;;;;-145.18;100.00;47039.34;5070240;28;20282;-76
2024/01/04 09:49:48;;;;;;;2.47;0.60;;;;;;;-145.18;100.00;47039.34;5069717;28;20297;-77
2024/01/04 09:52:15;;;;;;;3.47;0.50;;;;;;;-145.18;100.00;47027.63;5083009;28;20307;-77
2024/01/04 09:54:44;;;;;;;1.03;0.50;;;;;;;-145.18;100.00;47031.53;5088409;28;20143;-77
2024/01/04 09:57:10;;;;;;;2.90;0.80;;;;;;;-145.18;100.00;47029.59;5089744;28;20276;-77
2024/01/04 09:59:36;;;;;;;3.13;0.80;;;;;;;-145.18;100.00;47029.59;5083952;28;20289;-73
2024/01/04 10:02:03;;;;;;;1.60;0.80;;;;;;;-145.18;100.00;47027.63;5085277;28;20269;-73
2024/01/04 10:04:29;;;;;;;7.63;0.90;;;;;;;-145.18;100.00;47023.72;5085462;28;20028;-73
2024/01/04 10:06:59;;;;;;;6.20;1.10;;;;;;;-145.18;100.00;47021.78;5098168;28;20276;-73
2024/01/04 10:09:31;;;;;;;5.40;3.20;;;;;;;-145.18;100.00;47021.78;5083309;28;20028;-73
2024/01/04 10:12:05;;;;;;;20.10;8.90;;;;;;;-145.18;100.00;47019.81;5085498;28;20772;-73
2024/01/04 10:14:31;;;;;;;12.40;7.17;;;;;;;-145.18;100.00;47017.88;5086600;28;20297;-73
2024/01/04 10:16:58;;;;;;;9.77;5.83;;;;;;;-145.18;100.00;47008.09;5082120;28;20293;-73
2024/01/04 10:19:25;;;;;;;4.43;1.10;;;;;;;-145.18;100.00;47012.00;5089839;28;20321;-73
2024/01/04 10:21:51;;;;;;;6.23;1.37;;;;;;;-145.18;100.00;47006.16;5084783;28;20744;-73
2024/01/04 10:24:24;;;;;;;2.97;1.27;;;;;;;-145.18;100.00;47004.19;5081792;28;20305;-72
2024/01/04 10:26:57;;;;;;;3.50;1.50;;;;;;;-145.18;100.00;47006.16;5086492;28;20153;-73
2024/01/04 10:29:26;;;;;;;4.47;1.03;;;;;;;-145.18;100.00;47010.06;5086709;28;20138;-73
2024/01/04 10:31:57;;;;;;;2.17;0.97;;;;;;;-145.18;100.00;47004.19;5085377;28;20372;-72
2024/01/04 10:34:24;;;;;;;4.30;1.33;;;;;;;-145.18;100.00;47008.09;5099109;28;20020;-73
2024/01/04 10:36:49;;;;;;;4.50;1.27;;;;;;;-145.18;100.00;47006.16;5088280;28;20483;-72
2024/01/04 10:39:20;;;;;;;4.77;1.00;;;;;;;-145.18;100.00;47008.09;5072002;28;20115;-73
2024/01/04 10:41:59;;;;;;;12.83;1.10;;;;;;;-145.18;100.00;47008.09;5089630;28;20034;-74
2024/01/04 10:44:25;;;;;;;11.57;1.27;;;;;;;-145.18;100.00;47008.09;5090882;28;20024;-72
2024/01/04 10:46:58;;;;;;;7.07;2.10;;;;;;;-145.18;100.00;47008.09;5091034;28;20059;-72
2024/01/04 10:49:24;;;;;;;13.63;2.30;;;;;;;-145.18;100.00;47010.06;5106636;28;20036;-73
2024/01/04 10:51:54;;;;;;;8.77;1.27;;;;;;;-145.18;100.00;47004.19;5072560;28;20050;-73
2024/01/04 10:54:21;;;;;;;7.00;1.67;;;;;;;-145.18;100.00;46998.34;5086179;28;20058;-73
2024/01/04 10:56:46;;;;;;;10.73;1.70;;;;;;;-145.18;100.00;47000.28;5085474;28;20043;-73
2024/01/04 10:59:12;;;;;;;5.87;1.77;;;;;;;-145.18;100.00;46998.34;5090568;28;20036;-73
2024/01/04 11:01:41;;;;;;;10.50;1.80;;;;;;;-145.18;100.00;46996.38;5086655;28;20029;-73